createdAt,value
2023-03-21T00:01:54.276Z,49.83
2023-03-21T00:04:22.717Z,47.13
2023-03-21T00:06:51.057Z,52.40
2023-03-21T00:09:20.829Z,49.73
2023-03-21T00:11:49.804Z,48.53
2023-03-21T00:14:18.893Z,42.80
2023-03-21T00:16:50.849Z,45.40
2023-03-21T00:19:21.979Z,44.97
2023-03-21T00:22:08.820Z,45.60
2023-03-21T00:24:39.302Z,43.07
2023-03-21T00:27:39.336Z,41.20
2023-03-21T00:29:57.526Z,44.30
2023-03-21T00:32:26.506Z,41.93
2023-03-21T00:35:16.527Z,42.90
2023-03-21T00:37:44.706Z,40.80
2023-03-21T00:40:28.028Z,43.43
2023-03-21T00:43:02.322Z,43.57
2023-03-21T00:45:31.053Z,39.23
2023-03-21T00:47:59.728Z,37.77
2023-03-21T00:50:30.343Z,36.17
2023-03-21T00:52:58.722Z,35.30
2023-03-21T00:55:35.673Z,40.57
2023-03-21T00:58:04.176Z,33.63
2023-03-21T01:00:36.897Z,40.67
2023-03-21T01:03:21.357Z,37.97
2023-03-21T01:06:07.418Z,39.37
2023-03-21T01:08:51.274Z,43.83
2023-03-21T01:11:23.866Z,49.17
2023-03-21T01:13:57.896Z,55.77
2023-03-21T01:16:33.531Z,56.17
2023-03-21T01:19:05.031Z,61.97
2023-03-21T01:21:37.054Z,60.60
2023-03-21T01:24:06.547Z,69.93
2023-03-21T01:26:39.751Z,71.03
2023-03-21T01:29:08.336Z,67.33
2023-03-21T01:31:36.802Z,67.23
2023-03-21T01:34:05.462Z,75.90
2023-03-21T01:36:42.713Z,73.47
2023-03-21T01:39:11.500Z,81.33
2023-03-21T01:41:44.705Z,74.07
2023-03-21T01:44:17.761Z,73.20
2023-03-21T01:46:57.369Z,74.70
2023-03-21T01:49:38.785Z,70.00
2023-03-21T01:52:21.026Z,72.33
2023-03-21T01:54:57.606Z,74.53
2023-03-21T01:57:42.423Z,72.03
2023-03-21T02:00:15.359Z,68.03
2023-03-21T02:02:52.646Z,67.20
2023-03-21T02:05:27.606Z,59.70
2023-03-21T02:07:57.797Z,65.43
2023-03-21T02:10:26.678Z,70.80
2023-03-21T02:12:58.551Z,63.43
2023-03-21T02:15:28.376Z,64.77
2023-03-21T02:18:02.481Z,64.53
2023-03-21T02:21:35.199Z,65.77
2023-03-21T02:25:06.222Z,62.20
2023-03-21T02:27:48.934Z,65.30
2023-03-21T02:31:13.133Z,63.93
2023-03-21T02:34:38.485Z,55.03
2023-03-21T02:37:28.981Z,53.77
2023-03-21T02:40:12.603Z,53.10
2023-03-21T02:43:00.832Z,52.07
2023-03-21T02:45:37.533Z,50.27
2023-03-21T02:48:20.292Z,49.17
2023-03-21T02:50:57.671Z,45.93
2023-03-21T02:53:35.053Z,47.23
2023-03-21T02:56:04.812Z,46.80
2023-03-21T02:58:37.253Z,45.23
2023-03-21T03:01:07.080Z,42.17
2023-03-21T03:03:35.962Z,43.37
2023-03-21T03:06:09.749Z,44.10
2023-03-21T03:09:02.229Z,45.63
2023-03-21T03:11:34.847Z,46.30
2023-03-21T03:14:50.056Z,44.03
2023-03-21T03:17:37.942Z,42.40
2023-03-21T03:20:27.767Z,44.13
2023-03-21T03:23:06.802Z,39.53
2023-03-21T03:25:44.191Z,40.53
2023-03-21T03:28:18.419Z,43.07
2023-03-21T03:31:05.411Z,38.97
2023-03-21T03:33:39.936Z,43.10
2023-03-21T03:36:28.425Z,40.17
2023-03-21T03:39:01.303Z,36.97
2023-03-21T03:41:56.284Z,36.90
2023-03-21T03:44:20.927Z,34.60
2023-03-21T03:46:55.503Z,36.27
2023-03-21T03:49:27.759Z,38.33
2023-03-21T03:52:01.560Z,34.40
2023-03-21T03:54:34.216Z,33.53
2023-03-21T03:57:06.360Z,33.97
2023-03-21T03:59:37.283Z,36.27
2023-03-21T04:02:06.919Z,34.70
2023-03-21T04:04:36.997Z,32.90
2023-03-21T04:07:06.614Z,35.97
2023-03-21T04:09:44.005Z,33.77
2023-03-21T04:12:14.514Z,36.20
2023-03-21T04:14:46.161Z,36.40
2023-03-21T04:17:16.609Z,34.37
2023-03-21T04:19:45.637Z,35.63
2023-03-21T04:22:14.586Z,37.07
2023-03-21T04:24:43.569Z,39.27
2023-03-21T04:27:14.794Z,43.17
2023-03-21T04:29:43.614Z,38.67
2023-03-21T04:32:16.473Z,41.83
2023-03-21T04:34:50.009Z,39.83
2023-03-21T04:37:19.423Z,39.70
2023-03-21T04:39:48.714Z,36.43
2023-03-21T04:42:19.567Z,36.30
2023-03-21T04:44:48.830Z,34.43
2023-03-21T04:47:20.439Z,35.93
2023-03-21T04:49:49.714Z,38.33
2023-03-21T04:52:18.385Z,38.07
2023-03-21T04:54:46.985Z,33.80
2023-03-21T04:57:16.988Z,34.47
2023-03-21T04:59:46.139Z,33.63
2023-03-21T05:02:15.476Z,30.07
2023-03-21T05:04:43.764Z,29.40
2023-03-21T05:07:13.022Z,33.63
2023-03-21T05:09:41.385Z,31.03
2023-03-21T05:12:09.867Z,33.87
2023-03-21T05:14:39.626Z,33.50
2023-03-21T05:17:08.146Z,28.40
2023-03-21T05:19:36.524Z,30.53
2023-03-21T05:22:09.155Z,34.57
2023-03-21T05:24:39.324Z,29.37
2023-03-21T05:27:08.644Z,32.33
2023-03-21T05:29:37.068Z,31.77
2023-03-21T05:32:07.381Z,32.03
2023-03-21T05:34:35.814Z,29.50
2023-03-21T05:37:04.220Z,31.30
2023-03-21T05:39:33.020Z,31.83
2023-03-21T05:42:01.464Z,30.37
2023-03-21T05:44:30.287Z,32.97
2023-03-21T05:46:58.621Z,31.40
2023-03-21T05:49:28.521Z,31.07
2023-03-21T05:52:00.597Z,36.27
2023-03-21T05:54:29.318Z,30.40
2023-03-21T05:56:58.042Z,34.00
2023-03-21T05:59:27.329Z,31.03
2023-03-21T06:01:56.109Z,35.30
2023-03-21T06:04:24.868Z,32.20
2023-03-21T06:06:55.246Z,34.67
2023-03-21T06:09:26.112Z,30.40
2023-03-21T06:11:57.192Z,30.60
2023-03-21T06:14:27.721Z,34.83
2023-03-21T06:16:56.317Z,31.43
2023-03-21T06:19:25.042Z,32.80
2023-03-21T06:21:55.012Z,33.17
2023-03-21T06:24:23.371Z,33.03
2023-03-21T06:26:51.786Z,34.77
2023-03-21T06:29:20.335Z,32.50
2023-03-21T06:31:48.890Z,35.23
2023-03-21T06:34:17.343Z,33.30
2023-03-21T06:36:46.727Z,30.43
2023-03-21T06:39:16.959Z,31.23
2023-03-21T06:41:45.409Z,31.60
2023-03-21T06:44:13.978Z,32.33
2023-03-21T06:46:42.554Z,36.90
2023-03-21T06:49:11.708Z,34.63
2023-03-21T06:51:40.025Z,34.53
2023-03-21T06:54:08.480Z,33.00
2023-03-21T06:56:38.315Z,33.27
2023-03-21T06:59:06.775Z,35.63
2023-03-21T07:01:35.400Z,35.47
2023-03-21T07:04:05.052Z,31.73
2023-03-21T07:06:33.825Z,34.23
2023-03-21T07:09:06.018Z,35.17
2023-03-21T07:11:38.132Z,34.63
2023-03-21T07:14:15.286Z,31.87
2023-03-21T07:16:43.656Z,32.23
2023-03-21T07:19:12.052Z,34.83
2023-03-21T07:21:40.441Z,35.53
2023-03-21T07:24:09.401Z,34.30
2023-03-21T07:26:39.141Z,35.43
2023-03-21T07:29:07.535Z,32.43
2023-03-21T07:31:36.799Z,33.20
2023-03-21T07:34:05.988Z,33.13
2023-03-21T07:36:34.814Z,33.67
2023-03-21T07:39:04.404Z,32.17
2023-03-21T07:41:32.991Z,29.90
2023-03-21T07:44:03.789Z,29.33
2023-03-21T07:46:32.664Z,29.40
2023-03-21T07:49:01.655Z,28.30
2023-03-21T07:51:30.344Z,31.97
2023-03-21T07:53:58.752Z,27.87
2023-03-21T07:56:27.929Z,25.07
2023-03-21T07:58:56.638Z,25.90
2023-03-21T08:01:27.775Z,24.30
2023-03-21T08:03:56.249Z,22.77
2023-03-21T08:06:25.059Z,22.00
2023-03-21T08:08:53.365Z,19.50
2023-03-21T08:11:22.598Z,18.53
2023-03-21T08:13:51.360Z,18.47
2023-03-21T08:16:20.071Z,17.47
2023-03-21T08:18:49.808Z,17.07
2023-03-21T08:21:18.158Z,15.13
2023-03-21T08:23:46.470Z,13.00
2023-03-21T08:26:16.071Z,15.67
2023-03-21T08:28:44.591Z,14.47
2023-03-21T08:31:14.186Z,15.13
2023-03-21T08:33:42.603Z,14.13
2023-03-21T08:36:13.236Z,13.33
2023-03-21T08:38:41.591Z,14.03
2023-03-21T08:41:10.662Z,13.47
2023-03-21T08:43:39.193Z,14.77
2023-03-21T08:46:08.475Z,16.23
2023-03-21T08:48:38.992Z,15.50
2023-03-21T08:51:07.947Z,15.63
2023-03-21T08:53:37.974Z,14.90
2023-03-21T08:56:07.168Z,15.03
2023-03-21T08:58:35.557Z,14.77
2023-03-21T09:01:03.977Z,15.70
2023-03-21T09:03:32.907Z,16.17
2023-03-21T09:06:03.176Z,16.43
2023-03-21T09:08:31.717Z,15.60
2023-03-21T09:11:01.824Z,15.40
2023-03-21T09:13:30.488Z,16.77
2023-03-21T09:16:01.317Z,15.97
2023-03-21T09:18:44.746Z,16.20
2023-03-21T09:21:14.856Z,17.63
2023-03-21T09:23:45.006Z,17.43
2023-03-21T09:26:16.318Z,17.00
2023-03-21T09:28:46.235Z,16.10
2023-03-21T09:31:17.123Z,17.83
2023-03-21T09:33:45.813Z,20.97
2023-03-21T09:36:14.672Z,17.67
2023-03-21T09:38:45.519Z,22.77
2023-03-21T09:41:40.603Z,22.77
2023-03-21T09:44:28.821Z,21.53
2023-03-21T09:47:05.039Z,21.07
2023-03-21T09:49:37.070Z,20.20
2023-03-21T09:52:14.450Z,21.03
2023-03-21T09:54:45.015Z,20.33
2023-03-21T09:57:28.742Z,21.87
2023-03-21T10:00:01.598Z,23.97
2023-03-21T10:02:39.464Z,24.60
2023-03-21T10:05:19.118Z,25.90
2023-03-21T10:07:53.707Z,25.10
2023-03-21T10:10:28.970Z,26.23
2023-03-21T10:12:58.877Z,25.83
2023-03-21T10:15:28.979Z,28.83
2023-03-21T10:18:02.923Z,29.43
2023-03-21T10:20:33.980Z,29.17
2023-03-21T10:23:07.109Z,31.30
2023-03-21T10:25:38.761Z,32.07
2023-03-21T10:28:12.480Z,33.20
2023-03-21T10:30:43.743Z,29.93
2023-03-21T10:33:17.232Z,34.93
2023-03-21T10:35:51.459Z,36.30
2023-03-21T10:38:21.649Z,32.90
2023-03-21T10:40:49.979Z,37.23
2023-03-21T10:43:35.520Z,35.10
2023-03-21T10:46:13.939Z,36.27
2023-03-21T10:48:46.872Z,37.23
2023-03-21T10:51:21.722Z,34.93
2023-03-21T10:53:56.153Z,38.73
2023-03-21T10:56:28.855Z,36.57
2023-03-21T10:59:01.707Z,35.60
2023-03-21T11:01:36.892Z,31.20
2023-03-21T11:04:11.574Z,31.10
2023-03-21T11:06:43.163Z,32.30
2023-03-21T11:09:17.341Z,32.37
2023-03-21T11:11:54.519Z,36.47
2023-03-21T11:14:36.993Z,36.53
2023-03-21T11:17:24.987Z,29.20
2023-03-21T11:19:58.408Z,30.40
2023-03-21T11:22:31.458Z,27.17
2023-03-21T11:25:02.448Z,29.30
2023-03-21T11:27:32.689Z,27.80
2023-03-21T11:30:05.700Z,25.83
2023-03-21T11:32:41.199Z,28.10
2023-03-21T11:35:20.822Z,22.40
2023-03-21T11:37:54.302Z,25.40
2023-03-21T11:40:27.774Z,21.33
2023-03-21T11:42:58.804Z,25.50
2023-03-21T11:45:31.328Z,20.77
2023-03-21T11:48:02.290Z,21.87
2023-03-21T11:50:36.686Z,24.13
2023-03-21T11:53:26.725Z,26.03
2023-03-21T11:56:11.651Z,23.27
2023-03-21T11:58:57.398Z,24.10
2023-03-21T12:01:35.572Z,23.97
2023-03-21T12:04:37.935Z,23.97
2023-03-21T12:07:20.109Z,22.07
2023-03-21T12:09:57.796Z,23.90
2023-03-21T12:12:40.041Z,20.40
2023-03-21T12:15:19.234Z,21.50
2023-03-21T12:18:01.182Z,22.43
2023-03-21T12:20:43.254Z,23.93
2023-03-21T12:23:49.668Z,21.40
2023-03-21T12:26:27.303Z,20.83
2023-03-21T12:29:34.684Z,18.70
2023-03-21T12:32:19.537Z,19.23
2023-03-21T12:35:21.576Z,23.23
2023-03-21T12:38:02.075Z,17.73
2023-03-21T12:40:45.877Z,19.27
2023-03-21T12:43:36.905Z,17.43
2023-03-21T12:46:10.235Z,18.33
2023-03-21T12:48:45.412Z,18.37
2023-03-21T12:51:19.597Z,17.20
2023-03-21T12:54:06.030Z,16.90
2023-03-21T12:56:39.545Z,19.77
2023-03-21T12:59:22.103Z,15.93
2023-03-21T13:01:56.570Z,16.33
2023-03-21T13:04:42.752Z,12.97
2023-03-21T13:07:18.105Z,17.50
2023-03-21T13:09:46.568Z,15.70
2023-03-21T13:12:42.421Z,18.80
2023-03-21T13:15:32.055Z,15.93
2023-03-21T13:18:11.741Z,17.90
2023-03-21T13:20:47.694Z,14.83
2023-03-21T13:23:19.902Z,15.53
2023-03-21T13:25:51.162Z,17.40
2023-03-21T13:28:23.776Z,18.90
2023-03-21T13:30:52.718Z,15.83
2023-03-21T13:33:27.561Z,12.23
2023-03-21T13:36:05.716Z,16.87
2023-03-21T13:38:40.253Z,17.80
2023-03-21T13:41:18.024Z,14.10
2023-03-21T13:43:54.150Z,13.77
2023-03-21T13:46:54.024Z,15.97
2023-03-21T13:49:34.432Z,13.43
2023-03-21T13:52:26.464Z,16.33
2023-03-21T13:54:57.713Z,12.33
2023-03-21T13:57:39.898Z,14.00
2023-03-21T14:00:26.302Z,14.50
2023-03-21T14:02:59.766Z,14.73
2023-03-21T14:05:30.649Z,14.13
2023-03-21T14:08:12.602Z,15.13
2023-03-21T14:10:49.165Z,12.50
2023-03-21T14:13:22.296Z,16.00
2023-03-21T14:15:56.851Z,14.10
2023-03-21T14:18:35.008Z,16.00
2023-03-21T14:21:05.299Z,14.87
2023-03-21T14:23:40.436Z,15.30
2023-03-21T14:26:12.814Z,14.57
2023-03-21T14:28:49.510Z,13.13
2023-03-21T14:31:21.121Z,16.33
2023-03-21T14:33:54.125Z,14.57
2023-03-21T14:36:26.683Z,13.13
2023-03-21T14:39:08.319Z,17.00
2023-03-21T14:41:48.534Z,13.37
2023-03-21T14:44:26.399Z,12.70
2023-03-21T14:47:01.788Z,14.10
2023-03-21T14:49:32.878Z,11.60
2023-03-21T14:52:06.255Z,12.80
2023-03-21T14:54:36.805Z,11.47
2023-03-21T14:57:12.818Z,14.23
2023-03-21T14:59:43.092Z,10.33
2023-03-21T15:02:19.807Z,13.93
2023-03-21T15:04:53.464Z,10.10
2023-03-21T15:07:29.592Z,11.97
2023-03-21T15:10:01.090Z,11.77
2023-03-21T15:12:31.357Z,12.20
2023-03-21T15:15:01.445Z,13.87
2023-03-21T15:17:31.310Z,12.67
2023-03-21T15:19:59.795Z,14.53
2023-03-21T15:22:35.192Z,14.90
2023-03-21T15:25:08.172Z,13.47
2023-03-21T15:27:43.056Z,10.47
2023-03-21T15:30:21.863Z,15.73
2023-03-21T15:32:51.160Z,14.30
2023-03-21T15:35:26.894Z,13.30
2023-03-21T15:37:58.357Z,13.67
2023-03-21T15:40:30.746Z,12.37
2023-03-21T15:43:14.000Z,14.67
2023-03-21T15:45:49.954Z,14.87
2023-03-21T15:48:22.992Z,15.87
2023-03-21T15:50:59.555Z,18.27
2023-03-21T15:53:28.897Z,11.87
2023-03-21T15:56:06.050Z,13.67
2023-03-21T15:58:39.366Z,14.77
2023-03-21T16:01:13.340Z,15.43
2023-03-21T16:03:46.982Z,13.93
2023-03-21T16:06:24.648Z,13.97
2023-03-21T16:08:57.010Z,14.80
2023-03-21T16:11:29.012Z,14.20
2023-03-21T16:14:02.074Z,14.77
2023-03-21T16:16:32.292Z,15.80
2023-03-21T16:19:02.927Z,14.17
2023-03-21T16:21:34.256Z,13.77
2023-03-21T16:24:03.407Z,16.27
2023-03-21T16:26:34.534Z,15.23
2023-03-21T16:29:10.144Z,14.80
2023-03-21T16:31:38.460Z,23.80
2023-03-21T16:34:07.206Z,13.60
2023-03-21T16:36:38.962Z,14.43
2023-03-21T16:39:19.062Z,14.37
2023-03-21T16:41:50.595Z,15.27
2023-03-21T16:44:21.032Z,15.50
2023-03-21T16:46:49.699Z,15.10
2023-03-21T16:49:24.894Z,13.63
2023-03-21T16:51:59.527Z,14.37
2023-03-21T16:54:28.140Z,17.37
2023-03-21T16:56:59.184Z,16.13
2023-03-21T16:59:29.907Z,15.07
2023-03-21T17:01:58.534Z,17.03
2023-03-21T17:04:27.937Z,19.03
2023-03-21T17:06:57.738Z,17.60
2023-03-21T17:09:28.117Z,17.67
2023-03-21T17:11:56.544Z,16.93
2023-03-21T17:14:25.184Z,17.77
2023-03-21T17:16:55.324Z,18.13
2023-03-21T17:19:26.689Z,20.27
2023-03-21T17:21:56.411Z,19.17
2023-03-21T17:24:26.528Z,20.23
2023-03-21T17:26:55.111Z,22.23
2023-03-21T17:29:23.733Z,22.47
2023-03-21T17:31:52.800Z,24.07
2023-03-21T17:34:22.520Z,26.53
2023-03-21T17:36:51.059Z,22.20
2023-03-21T17:39:22.796Z,24.20
2023-03-21T17:41:52.103Z,24.43
2023-03-21T17:44:20.963Z,25.30
2023-03-21T17:46:51.626Z,25.10
2023-03-21T17:49:21.797Z,24.50
2023-03-21T17:51:50.561Z,24.40
2023-03-21T17:54:19.132Z,23.90
2023-03-21T17:56:48.464Z,25.73
2023-03-21T17:59:16.802Z,25.87
2023-03-21T18:01:45.157Z,29.07
2023-03-21T18:04:13.667Z,25.93
2023-03-21T18:06:43.997Z,27.93
2023-03-21T18:09:13.406Z,27.37
2023-03-21T18:11:42.098Z,26.53
2023-03-21T18:14:17.584Z,26.30
2023-03-21T18:16:47.003Z,27.33
2023-03-21T18:19:15.871Z,24.97
2023-03-21T18:21:46.122Z,26.43
2023-03-21T18:24:14.989Z,31.60
2023-03-21T18:26:46.113Z,28.10
2023-03-21T18:32:08.557Z,29.80
2023-03-21T18:34:40.307Z,31.20
2023-03-21T18:37:13.338Z,30.57
2023-03-21T18:39:44.534Z,32.27
2023-03-21T18:42:17.575Z,31.17
2023-03-21T18:44:48.381Z,32.67
2023-03-21T18:47:17.337Z,28.07
2023-03-21T18:52:36.720Z,31.57
2023-03-21T18:55:06.200Z,29.57
2023-03-21T18:57:37.910Z,32.50
2023-03-21T19:00:13.019Z,30.50
2023-03-21T19:02:46.426Z,34.37
2023-03-21T19:05:18.080Z,32.83
2023-03-21T19:07:48.985Z,34.03
2023-03-21T19:10:20.760Z,34.27
2023-03-21T19:12:49.643Z,36.73
2023-03-21T19:15:21.488Z,37.33
2023-03-21T19:18:34.033Z,34.83
2023-03-21T19:20:45.078Z,34.67
2023-03-21T19:23:17.240Z,35.57
2023-03-21T19:25:46.798Z,33.97
2023-03-21T19:28:15.176Z,37.37
2023-03-21T19:30:49.795Z,37.17
2023-03-21T19:33:20.059Z,36.20
2023-03-21T19:36:08.868Z,36.13
2023-03-21T19:38:40.817Z,39.53
2023-03-21T19:41:09.262Z,41.73
2023-03-21T19:43:39.975Z,38.83
2023-03-21T19:46:09.017Z,39.03
2023-03-21T19:48:38.422Z,35.53
2023-03-21T19:51:26.968Z,37.07
2023-03-21T19:53:57.225Z,38.70
2023-03-21T19:56:27.628Z,40.87
2023-03-21T19:58:56.577Z,35.47
2023-03-21T20:01:26.730Z,39.33
2023-03-21T20:03:55.476Z,33.73
2023-03-21T20:06:24.394Z,36.43
2023-03-21T20:11:43.565Z,38.93
2023-03-21T20:14:11.978Z,38.83
2023-03-21T20:16:43.434Z,37.97
2023-03-21T20:19:16.031Z,37.47
2023-03-21T20:21:52.197Z,35.63
2023-03-21T20:24:25.195Z,36.90
2023-03-21T20:26:56.173Z,39.73
2023-03-21T20:32:13.361Z,36.77
2023-03-21T20:34:44.306Z,35.60
2023-03-21T20:37:13.181Z,32.97
2023-03-21T20:39:42.967Z,36.20
2023-03-21T20:42:12.778Z,34.40
2023-03-21T20:44:58.185Z,34.10
2023-03-21T20:47:28.197Z,32.93
2023-03-21T20:49:58.530Z,31.37
2023-03-21T20:52:54.891Z,32.77
2023-03-21T20:55:18.787Z,31.83
2023-03-21T20:57:48.930Z,30.70
2023-03-21T21:00:18.768Z,28.07
2023-03-21T21:02:49.960Z,31.67
2023-03-21T21:05:30.723Z,31.27
2023-03-21T21:08:01.184Z,31.00
2023-03-21T21:10:30.942Z,28.30
2023-03-21T21:13:01.273Z,30.33
2023-03-21T21:15:30.193Z,31.37
2023-03-21T21:18:07.816Z,31.17
2023-03-21T21:20:39.277Z,31.37
2023-03-21T21:23:09.660Z,28.67
2023-03-21T21:25:44.371Z,29.70
2023-03-21T21:28:14.897Z,29.03
2023-03-21T21:30:43.697Z,31.33
2023-03-21T21:33:15.129Z,30.87
2023-03-21T21:35:48.345Z,27.77
2023-03-21T21:38:19.289Z,28.50
2023-03-21T21:40:50.349Z,24.87
2023-03-21T21:43:21.143Z,25.07
2023-03-21T21:45:50.428Z,25.27
2023-03-21T21:48:18.880Z,26.43
2023-03-21T21:50:49.289Z,26.87
2023-03-21T21:53:19.127Z,24.80
2023-03-21T21:55:48.975Z,28.90
2023-03-21T21:58:21.039Z,28.17
2023-03-21T22:00:51.291Z,30.63
2023-03-21T22:03:22.167Z,31.57
2023-03-21T22:05:51.694Z,27.67
2023-03-21T22:08:20.785Z,30.97
2023-03-21T22:10:49.296Z,29.83
2023-03-21T22:13:19.039Z,27.73
2023-03-21T22:15:47.731Z,31.60
2023-03-21T22:18:16.080Z,33.57
2023-03-21T22:20:45.344Z,33.53
2023-03-21T22:23:13.985Z,33.17
2023-03-21T22:25:43.376Z,35.10
2023-03-21T22:28:11.737Z,33.97
2023-03-21T22:30:41.415Z,36.30
2023-03-21T22:33:10.322Z,35.37
2023-03-21T22:35:39.028Z,38.33
2023-03-21T22:38:07.545Z,37.97
2023-03-21T22:40:36.081Z,32.40
2023-03-21T22:43:04.544Z,38.13
2023-03-21T22:45:34.928Z,36.33
2023-03-21T22:48:06.731Z,36.83
2023-03-21T22:50:35.082Z,32.13
2023-03-21T22:53:03.648Z,33.60
2023-03-21T22:55:32.009Z,30.03
2023-03-21T22:58:00.400Z,29.47
2023-03-21T23:00:29.190Z,27.73
2023-03-21T23:02:59.649Z,27.97
2023-03-21T23:05:29.889Z,26.80
2023-03-21T23:07:58.452Z,26.53
2023-03-21T23:10:26.770Z,27.87
2023-03-21T23:12:55.317Z,26.03
2023-03-21T23:15:25.840Z,25.80
2023-03-21T23:17:54.213Z,22.97
2023-03-21T23:20:22.600Z,23.77
2023-03-21T23:22:52.409Z,22.30
2023-03-21T23:25:21.010Z,25.47
2023-03-21T23:27:49.401Z,23.67
2023-03-21T23:30:17.998Z,22.20
2023-03-21T23:32:46.361Z,22.47
2023-03-21T23:35:14.816Z,23.47
2023-03-21T23:37:52.797Z,23.57
2023-03-21T23:40:22.959Z,19.87
2023-03-21T23:42:51.664Z,22.23
2023-03-21T23:45:19.958Z,22.37
2023-03-21T23:47:48.784Z,18.87
2023-03-21T23:50:17.395Z,17.07
2023-03-21T23:52:46.095Z,16.57
2023-03-21T23:55:14.552Z,17.40
2023-03-21T23:57:44.305Z,19.43
